CheckWX is a tool to help pilots better visualize weather data.  It is not intended as a substitute for an official pre-flight weather briefing.

14:30:10 UTC

KINK METAR
Winkler County Airport
Wink, Texas, USA
Current

37 mins ago

KINK 201353Z AUTO 15017G20KT 10SM CLR 27/16 A2993 RMK AO2 SLP080 T02720156
Observed
Jul-20 @ 13:53 UTC
Wind
  • 150° at 17 KTS
  • Gusting to 20 KTS
Visibility
10 SM
Flight Rules
VFR
Cloud Levels
  • Clear skies
Temperature
27°C / 81°F
Dewpoint
16°C / 61°F
Heat Index
28°C / 82°F
Humidity
51%
Altimeter
29.93" Hg
Pressure
1013.52 hPa
Previous

2 hours ago

KINK 201253Z AUTO 14013KT 10SM CLR 26/15 A2992 RMK AO2 SLP076 T02560150
Observed
Jul-20 @ 12:53 UTC
Wind
  • 140° at 13 KTS
Visibility
10 SM
Flight Rules
VFR
Cloud Levels
  • Clear skies
Temperature
26°C / 79°F
Dewpoint
15°C / 59°F
Humidity
51%
Altimeter
29.92" Hg
Pressure
1013.22 hPa
Previous

3 hours ago

KINK 201153Z AUTO 14013KT 10SM CLR 26/14 A2990 RMK AO2 SLP070 T02560139 10294 20250 53002
Observed
Jul-20 @ 11:53 UTC
Wind
  • 140° at 13 KTS
Visibility
10 SM
Flight Rules
VFR
Cloud Levels
  • Clear skies
Temperature
26°C / 79°F
Dewpoint
14°C / 57°F
Humidity
48%
Altimeter
29.9" Hg
Pressure
1012.52 hPa